Ana Sayfa
METAR-TAF:

METAR-TAF

Havaalanları :

Hartford, Connecticut, Amerika Birleşik Devletleri

Enlem: 41-44-06N, Boylam: 072-39-06W, yükseklik: 5 m

Güncel hava durumu gözlemi

Rapor saat 19:53 UTC de 1 saat ve 0 dakika önce yapıldı.
Rüzgar kuzeydan 8 kt
Sıcaklık 3°C
Nem 23%
Basınç 1031 hPa
Görüş mesafesi: 16.1 km
Açık gökyüzü

METAR: KHFD 161953Z 01008KT 10SM CLR 03/M16 A3045 RMK AO2 SLP311 T00281161

Saat: 15:53 (20:53 UTC)


TAF: eksik

4.000'den fazla havaalanı için hava durumu gözlemleri ve tahminleri (METAR ve TAF raporları).

Kullanılabilir istasyonlar harita üzerinde sarı ve kırmızı noktalarla gösterilir.

İstasyonun adını görmek için fareyi noktanın üzerinde gezdirin.

Sonrasında hava gözlem ve tahminlerini görmek için tıklayın.

Haritayı değiştirmek için: yaklaştırmak için siyah artı işaretli yeşil düğmeye ve uzaklaştırmak için de eksi işaretli düğmeye hızla tıklayın; bitişik haritalar için yeşil okları kullanın.


METAR-TAF: